Djibouti, Djibouti

3:12 PM EAT on July 30, 2016 (GMT +0300)
Ambouli | | Change Station

Elev 62 ft 11.55 °N, 43.16 °E | Updated 12 minutes ago

Clear
Clear
102 °F
Feels Like 112 °F
N
14
Wind Variable Wind from WNW

Today
High -- | Low -- °F
--% Chance of Precip.
Yesterday
High -- | Low -- °F
Precip. -- in
Pressure 29.62 in
Visibility -9999.0 miles
Clouds
Heat Index 112 °F
Dew Point 72 °F
Humidity 37%
Rainfall 0.00 in
Snow Depth Not available.
5:54 AM 6:32 PM
Waning Crescent, 14% visible
METAR HDAM 301200Z 30012KT CAVOK 39/22 Q1003
Pressure 29.62 in
Visibility -9999.0 miles
Clouds
Heat Index 112 °F
Dew Point 72 °F
Humidity 37%
Rainfall 0.00 in
Snow Depth Not available.
5:54 AM 6:32 PM
Waning Crescent, 14% visible
METAR HDAM 301200Z 30012KT CAVOK 39/22 Q1003

10-Day Weather Forecast

No radar image for this location.
×

Almanac

Astronomy

Jul. 30, 2016 Rise Set
Actual Time
Civil Twilight
Nautical Twilight
Astronomical Twilight
Moon
Length of Visible Light
Length of Day
Tomorrow will be .
, % of the Moon is Illuminated

Today's Extremes

Country Highs Country Lows

Community

WunderPhotos

Upload Photos

1,928,543 photos uploaded!

WunderBlog® & News

Nearby

Air Quality

  Air Quality AQ Index Pollutant
Not available.

Snow Depth

Station Depth Elevation

Earthquake Activity

City Distance Mag. Time & Date
Minimum magnitude displayed is 2.5.

Coastal Water Temperatures

Place Temperature

Stations

Nearby Weather Stations

Station Location Temp. Windchill Dew Point Humidity Wind Precip. Elev Updated Type